Time;durP1;ratioP1;P1;durP2;ratioP2;P2;SDS_P1;SDS_P2;PMS_P1;PMS_P2;Temp;Humidity;BMP_temperature;BMP_pressure;BME280_temperature;BME280_humidity;BME280_pressure;Samples;Min_cycle;Max_cycle;Signal;HPM_P1;HPM_P2
2023/03/04 00:00:26;;;;;;;;;4.00;3.00;;;;;20.20;53.82;100546.35;109939;1253;19579;-38
2023/03/04 00:03:14;;;;;;;;;3.00;3.00;;;;;20.19;54.06;100538.02;110048;1267;22177;-38
2023/03/04 00:05:41;;;;;;;;;3.00;3.00;;;;;20.19;54.06;100537.30;109920;1252;18733;-38
2023/03/04 00:08:09;;;;;;;;;4.00;4.00;;;;;20.20;54.03;100536.06;109917;1267;20028;-38
2023/03/04 00:10:36;;;;;;;;;3.50;3.00;;;;;20.20;53.97;100535.63;110051;1267;18988;-38
2023/03/04 00:13:04;;;;;;;;;3.00;3.00;;;;;20.21;53.77;100531.67;110032;1261;19971;-38
2023/03/04 00:15:31;;;;;;;;;4.00;3.00;;;;;20.20;53.87;100514.74;110032;1267;18248;-38
2023/03/04 00:17:58;;;;;;;;;2.00;2.00;;;;;20.20;53.74;100500.97;110002;1260;17923;-38
2023/03/04 00:20:26;;;;;;;;;3.00;3.00;;;;;20.20;53.88;100486.45;110019;1252;19973;-38
2023/03/04 00:22:53;;;;;;;;;4.00;2.00;;;;;20.19;53.66;100480.66;110022;1267;18237;-38
2023/03/04 00:25:21;;;;;;;;;3.00;3.00;;;;;20.20;53.73;100480.80;110023;1260;19056;-38
2023/03/04 00:27:48;;;;;;;;;3.00;3.00;;;;;20.19;53.88;100466.63;110020;1267;18542;-38
2023/03/04 00:30:15;;;;;;;;;3.00;3.00;;;;;20.19;53.79;100458.39;110038;1253;19706;-39
2023/03/04 00:32:43;;;;;;;;;3.00;3.00;;;;;20.18;53.67;100456.15;109989;1253;19426;-38
2023/03/04 00:35:10;;;;;;;;;3.00;3.00;;;;;20.20;53.68;100449.05;110023;1267;21312;-38
2023/03/04 00:37:38;;;;;;;;;3.50;3.00;;;;;20.18;53.85;100426.63;110004;1267;19588;-38
2023/03/04 00:40:05;;;;;;;;;3.00;3.00;;;;;20.18;53.79;100416.80;110045;1267;17949;-38
2023/03/04 00:42:33;;;;;;;;;3.00;3.00;;;;;20.17;53.64;100406.94;109972;1261;21566;-38
2023/03/04 00:45:00;;;;;;;;;3.00;2.00;;;;;20.18;53.84;100401.77;110020;1253;19649;-38
2023/03/04 00:47:27;;;;;;;;;4.00;4.00;;;;;20.18;53.50;100397.11;109995;1252;20963;-38
2023/03/04 00:49:55;;;;;;;;;3.00;3.00;;;;;20.17;53.50;100386.44;110017;1267;18514;-38
2023/03/04 00:52:22;;;;;;;;;3.00;3.00;;;;;20.17;53.45;100381.36;110001;1267;19780;-38
2023/03/04 00:54:50;;;;;;;;;2.00;2.00;;;;;20.18;53.66;100380.04;110047;1267;17921;-38
2023/03/04 00:57:17;;;;;;;;;4.00;3.67;;;;;20.17;53.51;100381.58;110019;1253;20407;-38
2023/03/04 00:59:45;;;;;;;;;3.00;3.00;;;;;20.18;53.46;100390.55;110018;1254;19640;-38
2023/03/04 01:02:12;;;;;;;;;3.00;3.00;;;;;20.17;53.59;100396.84;110034;1267;21509;-38
2023/03/04 01:04:40;;;;;;;;;3.33;3.33;;;;;20.17;53.73;100397.39;109999;1267;18597;-38
2023/03/04 01:07:08;;;;;;;;;3.00;3.00;;;;;20.17;53.71;100393.24;109959;1267;20045;-38
2023/03/04 01:09:35;;;;;;;;;3.00;3.00;;;;;20.18;53.61;100397.65;109949;1253;19797;-38
2023/03/04 01:12:03;;;;;;;;;4.00;3.00;;;;;20.18;53.45;100399.38;110003;1251;20789;-39
2023/03/04 01:14:30;;;;;;;;;3.00;3.00;;;;;20.16;53.30;100395.63;110015;1267;18435;-38
2023/03/04 01:16:58;;;;;;;;;3.00;3.00;;;;;20.16;53.46;100398.17;110014;1253;20111;-38
2023/03/04 01:19:25;;;;;;;;;3.00;3.00;;;;;20.17;53.52;100395.85;110013;1253;20991;-38
2023/03/04 01:21:53;;;;;;;;;3.00;3.00;;;;;20.17;53.58;100391.41;110001;1254;18542;-38
2023/03/04 01:24:20;;;;;;;;;2.00;2.00;;;;;20.18;53.34;100398.54;110015;1267;18776;-40
2023/03/04 01:26:47;;;;;;;;;3.00;3.00;;;;;20.17;53.44;100397.52;110021;1267;20849;-38
2023/03/04 01:29:15;;;;;;;;;3.00;3.00;;;;;20.16;53.40;100391.27;109889;1253;19673;-38
2023/03/04 01:31:42;;;;;;;;;2.00;2.00;;;;;20.17;53.29;100394.63;110012;1267;19934;-38
2023/03/04 01:34:10;;;;;;;;;3.00;3.00;;;;;20.16;53.15;100383.98;110016;1267;19443;-38
2023/03/04 01:36:37;;;;;;;;;3.00;3.00;;;;;20.16;53.19;100378.45;110003;1267;19629;-39
2023/03/04 01:39:05;;;;;;;;;3.00;3.00;;;;;20.16;53.39;100375.92;110017;1260;23737;-38
2023/03/04 01:41:32;;;;;;;;;3.00;3.00;;;;;20.16;53.30;100373.00;109999;1267;19337;-38
2023/03/04 01:44:01;;;;;;;;;3.00;3.00;;;;;20.16;53.29;100369.94;109992;1260;19945;-38
2023/03/04 01:46:28;;;;;;;;;1.00;1.00;;;;;20.15;53.42;100371.67;110019;1267;22317;-38
2023/03/04 01:48:56;;;;;;;;;3.00;3.00;;;;;20.15;53.23;100370.35;109994;1253;20783;-38
2023/03/04 01:51:23;;;;;;;;;3.00;3.00;;;;;20.15;53.40;100367.09;110005;1253;19688;-38
2023/03/04 01:53:53;;;;;;;;;3.00;3.00;;;;;20.15;53.11;100366.95;110003;1267;22261;-38
2023/03/04 01:56:21;;;;;;;;;1.00;1.00;;;;;20.16;53.19;100364.16;110026;1267;22197;-38
2023/03/04 01:58:48;;;;;;;;;1.00;1.00;;;;;20.15;53.28;100364.56;110003;1253;19701;-38
2023/03/04 02:01:15;;;;;;;;;3.00;3.00;;;;;20.14;53.31;100362.13;110009;1267;21277;-38
2023/03/04 02:03:43;;;;;;;;;3.00;3.00;;;;;20.14;53.18;100365.18;110036;1253;20716;-37
2023/03/04 02:06:10;;;;;;;;;1.00;1.00;;;;;20.14;53.33;100361.38;110013;1251;19658;-39
2023/03/04 02:08:38;;;;;;;;;2.33;2.33;;;;;20.14;53.19;100355.30;110017;1267;18665;-39
2023/03/04 02:11:05;;;;;;;;;3.00;3.00;;;;;20.14;53.21;100354.51;110004;1253;21213;-41
2023/03/04 02:13:34;;;;;;;;;3.00;1.00;;;;;20.14;53.04;100350.33;109994;1253;20093;-39
2023/03/04 02:16:01;;;;;;;;;3.00;3.00;;;;;20.15;53.12;100349.91;109915;1267;20316;-39
2023/03/04 02:18:29;;;;;;;;;1.00;1.00;;;;;20.15;53.20;100351.71;109970;1253;20934;-39
2023/03/04 02:20:57;;;;;;;;;3.00;3.00;;;;;20.15;53.10;100345.02;110056;1267;19623;-38
2023/03/04 02:23:24;;;;;;;;;3.00;1.00;;;;;20.15;53.06;100343.55;110034;1267;18658;-39
2023/03/04 02:25:51;;;;;;;;;1.00;1.00;;;;;20.14;53.21;100340.70;110018;1251;20802;-39
2023/03/04 02:28:19;;;;;;;;;3.00;3.00;;;;;20.14;53.06;100340.20;110003;1253;19735;-39
2023/03/04 02:30:46;;;;;;;;;3.00;3.00;;;;;20.13;53.13;100337.01;110012;1267;19852;-38
2023/03/04 02:33:14;;;;;;;;;1.00;1.00;;;;;20.15;53.12;100333.79;109885;1253;20724;-39
2023/03/04 02:35:41;;;;;;;;;1.00;1.00;;;;;20.14;53.03;100330.40;109948;1253;24067;-38
2023/03/04 02:38:08;;;;;;;;;3.00;3.00;;;;;20.14;53.11;100329.52;110074;1267;18780;-38
2023/03/04 02:40:36;;;;;;;;;1.00;1.00;;;;;20.15;53.05;100327.81;110057;1254;20799;-38
2023/03/04 02:43:03;;;;;;;;;3.00;1.00;;;;;20.15;53.05;100325.26;110059;1251;19645;-39
2023/03/04 02:45:31;;;;;;;;;3.00;3.00;;;;;20.14;52.89;100325.75;110005;1253;20043;-38
2023/03/04 02:47:58;;;;;;;;;1.00;1.00;;;;;20.14;53.13;100323.19;109903;1251;19395;-39
2023/03/04 02:50:26;;;;;;;;;3.00;1.00;;;;;20.13;53.12;100317.62;109980;1253;19759;-38
2023/03/04 02:52:53;;;;;;;;;1.00;1.00;;;;;20.14;52.96;100317.55;110003;1254;19989;-38
2023/03/04 02:55:20;;;;;;;;;1.00;1.00;;;;;20.14;52.99;100311.39;110022;1267;19710;-39
2023/03/04 02:57:48;;;;;;;;;1.00;1.00;;;;;20.13;52.97;100305.36;109999;1267;22706;-38
2023/03/04 03:00:15;;;;;;;;;1.00;1.00;;;;;20.13;53.01;100306.77;109991;1267;19946;-38
2023/03/04 03:02:43;;;;;;;;;3.00;1.00;;;;;20.13;52.98;100306.64;110044;1253;20917;-38
2023/03/04 03:05:10;;;;;;;;;3.00;3.00;;;;;20.12;52.93;100302.66;109983;1251;20864;-39
2023/03/04 03:07:38;;;;;;;;;1.00;1.00;;;;;20.14;52.91;100304.15;110008;1267;18662;-38
2023/03/04 03:10:05;;;;;;;;;1.00;1.00;;;;;20.13;52.92;100302.22;110050;1253;20965;-39
2023/03/04 03:12:32;;;;;;;;;1.00;1.00;;;;;20.13;53.00;100298.82;110010;1254;22080;-39
2023/03/04 03:15:00;;;;;;;;;1.00;1.00;;;;;20.13;52.88;100301.30;110005;1267;19950;-38
2023/03/04 03:17:28;;;;;;;;;3.00;3.00;;;;;20.12;52.76;100298.15;110015;1267;22107;-39
2023/03/04 03:19:55;;;;;;;;;1.00;1.00;;;;;20.13;52.81;100300.62;110014;1253;22738;-38
2023/03/04 03:22:23;;;;;;;;;3.00;3.00;;;;;20.13;52.95;100294.30;110017;1267;18668;-38
2023/03/04 03:24:50;;;;;;;;;3.00;3.00;;;;;20.13;52.84;100287.69;110021;1267;20837;-38
2023/03/04 03:27:17;;;;;;;;;3.00;3.00;;;;;20.13;52.80;100291.04;109988;1267;18415;-38
2023/03/04 03:29:45;;;;;;;;;4.00;3.00;;;;;20.13;52.76;100285.41;110056;1254;21647;-38
2023/03/04 03:32:12;;;;;;;;;1.00;1.00;;;;;20.12;52.68;100282.41;110011;1267;19308;-38
2023/03/04 03:34:40;;;;;;;;;1.00;1.00;;;;;20.13;52.90;100281.98;110003;1253;19706;-39
2023/03/04 03:37:07;;;;;;;;;3.00;3.00;;;;;20.12;52.78;100277.34;109997;1267;20064;-38
2023/03/04 03:39:35;;;;;;;;;1.00;1.00;;;;;20.11;52.72;100280.34;110013;1253;20827;-39
2023/03/04 03:42:02;;;;;;;;;1.00;1.00;;;;;20.12;52.82;100278.77;110012;1253;19651;-39
2023/03/04 03:44:29;;;;;;;;;1.00;1.00;;;;;20.12;52.83;100271.70;110043;1253;20001;-38
2023/03/04 03:46:57;;;;;;;;;2.00;2.00;;;;;20.11;52.70;100269.63;110008;1267;21817;-39
2023/03/04 03:49:24;;;;;;;;;3.00;3.00;;;;;20.12;52.56;100268.97;110029;1253;19674;-39
2023/03/04 03:51:52;;;;;;;;;1.00;1.00;;;;;20.12;52.82;100260.51;110007;1267;21456;-40
2023/03/04 03:54:19;;;;;;;;;3.00;3.00;;;;;20.12;52.64;100262.27;109989;1267;19394;-39
2023/03/04 03:56:47;;;;;;;;;3.50;3.00;;;;;20.11;52.86;100262.71;109968;1251;18347;-39
2023/03/04 03:59:14;;;;;;;;;1.00;1.00;;;;;20.11;52.72;100270.23;110010;1267;18681;-39
2023/03/04 04:01:41;;;;;;;;;3.00;3.00;;;;;20.11;52.61;100265.51;109984;1267;19340;-38
2023/03/04 04:04:09;;;;;;;;;1.00;1.00;;;;;20.11;52.47;100266.81;110003;1267;18384;-38
2023/03/04 04:06:36;;;;;;;;;3.00;1.00;;;;;20.11;52.81;100266.26;110011;1253;20161;-39
2023/03/04 04:09:04;;;;;;;;;1.00;1.00;;;;;20.10;52.59;100273.16;110016;1267;19321;-39
2023/03/04 04:11:31;;;;;;;;;3.00;3.00;;;;;20.11;52.82;100275.45;109990;1253;20021;-38
2023/03/04 04:13:58;;;;;;;;;1.00;1.00;;;;;20.10;52.61;100273.36;110006;1267;18673;-37
2023/03/04 04:16:26;;;;;;;;;1.00;1.00;;;;;20.11;52.73;100279.05;110008;1253;20825;-39
2023/03/04 04:18:53;;;;;;;;;1.00;1.00;;;;;20.11;52.67;100280.23;110012;1267;19613;-37
2023/03/04 04:21:21;;;;;;;;;1.00;1.00;;;;;20.12;52.63;100279.94;110012;1267;20209;-37
2023/03/04 04:23:48;;;;;;;;;1.00;1.00;;;;;20.11;52.78;100280.07;110009;1251;19354;-38
2023/03/04 04:26:16;;;;;;;;;3.50;3.00;;;;;20.10;52.54;100274.33;110028;1253;19668;-38
2023/03/04 04:28:43;;;;;;;;;1.00;1.00;;;;;20.10;52.66;100274.84;110017;1267;22345;-38
2023/03/04 04:31:10;;;;;;;;;1.00;1.00;;;;;20.10;52.76;100265.62;110004;1251;19244;-38
2023/03/04 04:33:38;;;;;;;;;1.00;1.00;;;;;20.10;52.61;100269.05;109983;1267;19669;-38
2023/03/04 04:36:05;;;;;;;;;3.00;1.00;;;;;20.10;52.52;100267.96;110039;1267;20005;-38
2023/03/04 04:38:33;;;;;;;;;1.00;1.00;;;;;20.10;52.57;100262.14;110037;1253;21035;-38
2023/03/04 04:41:00;;;;;;;;;1.00;1.00;;;;;20.09;52.41;100254.97;110034;1267;19591;-38
2023/03/04 04:43:27;;;;;;;;;3.00;1.00;;;;;20.10;52.52;100251.43;110044;1253;19968;-39
2023/03/04 04:45:55;;;;;;;;;3.00;3.00;;;;;20.09;52.55;100249.94;110034;1253;22090;-38
2023/03/04 04:48:22;;;;;;;;;1.00;1.00;;;;;20.10;52.64;100254.39;109994;1260;22652;-38
2023/03/04 04:50:50;;;;;;;;;1.00;1.00;;;;;20.09;52.54;100250.82;110023;1267;18593;-38
2023/03/04 04:53:17;;;;;;;;;1.00;1.00;;;;;20.10;52.54;100243.14;109990;1267;21929;-38
2023/03/04 04:55:45;;;;;;;;;1.00;1.00;;;;;20.09;52.39;100233.55;109988;1267;19646;-38
2023/03/04 04:58:12;;;;;;;;;1.00;1.00;;;;;20.09;52.51;100237.23;109971;1253;21307;-38
2023/03/04 05:00:39;;;;;;;;;1.00;1.00;;;;;20.09;52.56;100232.94;109916;1253;20769;-38
2023/03/04 05:03:07;;;;;;;;;1.00;1.00;;;;;20.09;52.41;100231.75;109915;1267;22888;-37
2023/03/04 05:05:34;;;;;;;;;1.00;1.00;;;;;20.09;52.61;100235.29;109907;1251;20116;-38
2023/03/04 05:08:02;;;;;;;;;1.00;1.00;;;;;20.09;52.59;100235.63;109905;1267;22721;-38
2023/03/04 05:10:29;;;;;;;;;1.00;1.00;;;;;20.09;52.56;100231.85;109983;1267;19589;-37
2023/03/04 05:12:56;;;;;;;;;3.67;3.00;;;;;20.09;52.44;100229.09;110010;1267;21830;-38
2023/03/04 05:15:24;;;;;;;;;1.00;1.00;;;;;20.09;52.43;100230.77;109992;1267;22867;-38
2023/03/04 05:17:51;;;;;;;;;2.00;2.00;;;;;20.09;52.33;100228.14;110011;1260;19616;-38
2023/03/04 05:20:19;;;;;;;;;1.00;1.00;;;;;20.08;52.46;100230.13;110003;1267;22604;-39
2023/03/04 05:22:46;;;;;;;;;3.00;3.00;;;;;20.08;52.37;100226.61;109984;1251;19398;-38
2023/03/04 05:25:14;;;;;;;;;1.00;1.00;;;;;20.09;52.34;100227.09;109994;1253;20010;-38
2023/03/04 05:27:41;;;;;;;;;3.00;3.00;;;;;20.09;52.52;100222.73;110010;1267;19978;-38
2023/03/04 05:30:08;;;;;;;;;1.00;1.00;;;;;20.08;52.52;100219.16;110014;1267;19386;-39
2023/03/04 05:32:36;;;;;;;;;2.33;2.33;;;;;20.08;52.36;100219.91;110001;1267;19700;-39
2023/03/04 05:35:03;;;;;;;;;2.33;2.33;;;;;20.08;52.39;100222.17;110016;1251;18650;-38
2023/03/04 05:37:31;;;;;;;;;1.00;1.00;;;;;20.08;52.34;100218.91;109984;1267;20299;-38
2023/03/04 05:39:58;;;;;;;;;1.00;1.00;;;;;20.08;52.28;100224.98;110005;1267;19842;-38
2023/03/04 05:42:26;;;;;;;;;3.00;3.00;;;;;20.08;52.32;100228.59;109991;1267;18661;-38
2023/03/04 05:44:53;;;;;;;;;3.00;3.00;;;;;20.09;52.40;100223.48;109991;1251;21923;-38
2023/03/04 05:47:21;;;;;;;;;3.00;3.00;;;;;20.09;52.19;100225.45;109999;1267;22129;-38
2023/03/04 05:49:48;;;;;;;;;1.00;1.00;;;;;20.09;52.27;100224.98;110028;1267;18647;-39
2023/03/04 05:52:16;;;;;;;;;1.00;1.00;;;;;20.08;52.48;100232.06;110030;1267;19731;-39
2023/03/04 05:54:43;;;;;;;;;3.00;1.00;;;;;20.08;52.15;100227.55;110014;1267;18494;-39
2023/03/04 05:57:10;;;;;;;;;3.00;3.00;;;;;20.08;52.19;100228.13;110022;1267;20073;-39
2023/03/04 05:59:38;;;;;;;;;1.00;1.00;;;;;20.09;52.19;100232.02;109986;1267;19598;-39
2023/03/04 06:02:05;;;;;;;;;3.00;3.00;;;;;20.11;52.34;100233.56;109999;1267;19592;-37
2023/03/04 06:04:33;;;;;;;;;3.00;3.00;;;;;20.14;52.44;100235.38;110020;1253;20642;-38
2023/03/04 06:07:00;;;;;;;;;3.00;3.00;;;;;20.17;52.46;100230.33;110028;1251;20703;-38
2023/03/04 06:09:27;;;;;;;;;1.00;1.00;;;;;20.17;52.81;100227.61;110001;1267;19309;-39
2023/03/04 06:11:55;;;;;;;;;2.00;2.00;;;;;20.15;52.90;100225.63;109999;1267;20207;-38
2023/03/04 06:14:22;;;;;;;;;3.00;3.00;;;;;20.14;52.96;100226.88;110012;1253;20838;-39
2023/03/04 06:16:50;;;;;;;;;2.00;2.00;;;;;20.12;52.80;100223.30;109971;1267;22472;-38
2023/03/04 06:19:17;;;;;;;;;3.00;3.00;;;;;20.11;52.99;100228.81;110035;1267;20122;-38
2023/03/04 06:21:45;;;;;;;;;1.00;1.00;;;;;20.11;52.94;100228.81;109993;1267;19303;-38
2023/03/04 06:24:12;;;;;;;;;1.00;1.00;;;;;20.10;53.33;100226.08;110026;1259;18405;-39
2023/03/04 06:26:40;;;;;;;;;1.00;1.00;;;;;20.09;53.18;100224.41;109990;1267;18890;-38
2023/03/04 06:29:07;;;;;;;;;3.00;3.00;;;;;20.09;53.09;100223.63;110000;1267;20717;-38
2023/03/04 06:31:35;;;;;;;;;3.00;2.33;;;;;20.09;52.97;100222.98;110000;1260;18480;-39
2023/03/04 06:34:02;;;;;;;;;3.00;3.00;;;;;20.09;53.13;100221.52;110008;1251;19926;-39
2023/03/04 06:36:29;;;;;;;;;1.00;1.00;;;;;20.09;53.15;100221.45;109998;1267;19294;-37
2023/03/04 06:38:57;;;;;;;;;1.00;1.00;;;;;20.09;53.09;100219.17;109983;1267;22191;-38
2023/03/04 06:41:24;;;;;;;;;3.00;3.00;;;;;20.09;53.03;100219.26;110000;1267;20191;-38
2023/03/04 06:43:52;;;;;;;;;3.00;3.00;;;;;20.09;53.09;100215.70;109914;1253;20810;-38
2023/03/04 06:46:19;;;;;;;;;1.00;1.00;;;;;20.10;53.10;100215.59;110013;1251;19666;-38
2023/03/04 06:48:47;;;;;;;;;1.00;1.00;;;;;20.10;52.94;100219.88;110007;1267;18614;-38
2023/03/04 06:51:14;;;;;;;;;1.67;1.67;;;;;20.10;53.06;100217.53;109999;1267;21044;-39
2023/03/04 06:53:41;;;;;;;;;1.00;1.00;;;;;20.10;52.89;100218.65;110003;1253;19887;-39
2023/03/04 06:56:09;;;;;;;;;1.00;1.00;;;;;20.10;52.85;100223.58;110003;1267;18640;-38
2023/03/04 06:58:36;;;;;;;;;3.00;3.00;;;;;20.09;52.95;100222.94;109920;1259;20575;-38
2023/03/04 07:01:04;;;;;;;;;1.00;1.00;;;;;20.09;53.19;100220.98;109933;1267;18344;-39
2023/03/04 07:03:31;;;;;;;;;3.00;1.00;;;;;20.10;52.98;100225.21;110044;1253;21367;-39
2023/03/04 07:05:59;;;;;;;;;1.00;1.00;;;;;20.10;52.95;100222.84;110051;1267;19505;-39
2023/03/04 07:08:26;;;;;;;;;1.00;1.00;;;;;20.10;53.12;100220.63;110019;1267;18592;-38
2023/03/04 07:10:53;;;;;;;;;3.00;3.00;;;;;20.09;53.00;100218.00;109990;1251;20949;-38
2023/03/04 07:13:21;;;;;;;;;1.00;1.00;;;;;20.09;52.85;100215.12;109996;1267;19415;-38
2023/03/04 07:15:48;;;;;;;;;3.00;3.00;;;;;20.11;53.01;100213.27;109953;1267;19556;-38
2023/03/04 07:18:16;;;;;;;;;3.00;3.00;;;;;20.12;52.78;100215.98;109983;1267;20392;-38
2023/03/04 07:20:43;;;;;;;;;3.00;3.00;;;;;20.15;52.97;100210.90;110025;1267;20834;-39
2023/03/04 07:23:11;;;;;;;;;1.00;1.00;;;;;20.16;53.07;100214.58;110016;1267;18271;-39
2023/03/04 07:25:38;;;;;;;;;1.00;1.00;;;;;20.17;53.10;100210.35;109919;1251;19861;-38
2023/03/04 07:28:06;;;;;;;;;1.00;1.00;;;;;20.17;53.22;100212.91;109945;1267;21119;-39
2023/03/04 07:30:33;;;;;;;;;1.00;1.00;;;;;20.19;53.46;100208.27;110003;1267;18505;-39
2023/03/04 07:33:01;;;;;;;;;3.00;3.00;;;;;20.20;53.16;100208.30;109997;1267;22620;-38
2023/03/04 07:35:28;;;;;;;;;1.00;1.00;;;;;20.20;53.37;100206.17;110012;1267;20720;-38
2023/03/04 07:37:55;;;;;;;;;4.00;2.00;;;;;20.20;53.36;100204.84;109996;1267;19985;-38
2023/03/04 07:40:23;;;;;;;;;3.00;3.00;;;;;20.19;53.65;100201.69;110012;1267;22018;-39
2023/03/04 07:42:50;;;;;;;;;3.00;3.00;;;;;20.20;53.72;100203.45;110022;1253;20793;-39
2023/03/04 07:45:18;;;;;;;;;1.00;1.00;;;;;20.20;53.93;100202.11;110029;1267;19861;-39
2023/03/04 07:47:45;;;;;;;;;1.00;1.00;;;;;20.21;53.93;100199.15;110022;1267;19963;-38
2023/03/04 07:50:12;;;;;;;;;3.00;3.00;;;;;20.21;54.11;100195.10;110025;1253;20997;-39
2023/03/04 07:52:40;;;;;;;;;2.00;2.00;;;;;20.21;53.94;100187.48;110020;1267;18339;-38
2023/03/04 07:55:07;;;;;;;;;1.00;1.00;;;;;20.23;53.78;100189.86;109886;1267;18844;-38
2023/03/04 07:57:35;;;;;;;;;2.00;2.00;;;;;20.24;54.18;100188.40;109949;1253;21585;-38
2023/03/04 08:00:02;;;;;;;;;3.00;3.00;;;;;20.26;54.44;100191.23;110052;1253;19672;-37
2023/03/04 08:02:30;;;;;;;;;2.00;1.00;;;;;20.25;54.25;100188.66;110040;1267;20250;-38
2023/03/04 08:04:57;;;;;;;;;5.00;4.00;;;;;20.24;54.45;100184.55;110054;1252;20790;-38
2023/03/04 08:07:25;;;;;;;;;1.00;1.00;;;;;20.25;54.75;100181.77;110032;1267;22196;-37
2023/03/04 08:09:52;;;;;;;;;2.33;2.33;;;;;20.24;54.48;100182.41;110010;1267;18632;-38
2023/03/04 08:12:19;;;;;;;;;3.00;2.00;;;;;20.25;54.57;100181.89;110027;1253;20743;-38
2023/03/04 08:14:47;;;;;;;;;1.00;1.00;;;;;20.26;54.77;100181.02;110002;1251;18602;-38
2023/03/04 08:17:15;;;;;;;;;1.00;1.00;;;;;20.28;54.57;100177.41;109985;1267;19982;-39
2023/03/04 08:19:42;;;;;;;;;3.00;3.00;;;;;20.29;54.68;100181.06;109993;1251;21997;-38
2023/03/04 08:22:09;;;;;;;;;2.00;2.00;;;;;20.30;54.54;100179.33;110013;1253;19712;-38
2023/03/04 08:24:37;;;;;;;;;1.00;1.00;;;;;20.30;54.80;100177.90;109711;1267;348484;-38
2023/03/04 08:27:04;;;;;;;;;2.00;1.67;;;;;20.31;54.88;100174.35;110012;1253;22586;-38
2023/03/04 08:29:32;;;;;;;;;1.00;1.00;;;;;20.30;54.55;100172.83;110029;1267;18386;-39
2023/03/04 08:31:59;;;;;;;;;2.00;2.00;;;;;20.30;54.79;100171.07;110003;1267;19857;-38
2023/03/04 08:34:27;;;;;;;;;1.00;1.00;;;;;20.26;54.94;100169.05;109999;1260;20758;-39
2023/03/04 08:36:54;;;;;;;;;1.00;1.00;;;;;20.25;54.87;100169.62;110025;1267;18427;-38
2023/03/04 08:39:21;;;;;;;;;1.00;1.00;;;;;20.22;54.90;100164.73;109970;1251;19814;-40
2023/03/04 08:41:49;;;;;;;;;1.00;1.00;;;;;20.24;54.91;100162.98;109974;1253;20804;-37
2023/03/04 08:44:16;;;;;;;;;5.00;4.00;;;;;20.25;54.80;100168.02;109970;1251;19765;-36
2023/03/04 08:46:44;;;;;;;;;1.00;1.00;;;;;20.24;54.55;100171.33;109993;1267;18780;-37
2023/03/04 08:49:11;;;;;;;;;1.00;1.00;;;;;20.23;54.65;100164.20;109920;1267;22822;-37
2023/03/04 08:51:39;;;;;;;;;2.00;1.00;;;;;20.20;54.34;100162.60;109937;1267;18801;-37
2023/03/04 08:54:06;;;;;;;;;2.00;2.00;;;;;20.21;54.57;100160.85;109922;1267;19985;-37
2023/03/04 08:56:34;;;;;;;;;1.00;1.00;;;;;20.19;54.57;100161.49;109966;1267;19526;-38
2023/03/04 08:59:01;;;;;;;;;1.00;1.00;;;;;20.21;55.33;100161.59;109901;1267;18380;-38
2023/03/04 09:01:28;;;;;;;;;2.00;2.00;;;;;20.22;55.45;100162.13;110011;1261;22203;-37
2023/03/04 09:03:56;;;;;;;;;1.00;1.00;;;;;20.23;55.43;100158.84;109883;1251;21558;-37
2023/03/04 09:06:23;;;;;;;;;1.00;1.00;;;;;20.20;55.50;100162.09;109995;1253;19701;-37
2023/03/04 09:08:51;;;;;;;;;2.00;2.00;;;;;20.20;55.53;100165.11;109995;1260;20986;-37
2023/03/04 09:11:18;;;;;;;;;2.50;2.50;;;;;20.23;55.40;100167.20;110004;1253;20817;-37
2023/03/04 09:13:45;;;;;;;;;3.00;3.00;;;;;20.23;55.27;100169.67;109980;1267;22642;-37
2023/03/04 09:16:13;;;;;;;;;1.00;1.00;;;;;20.23;55.36;100167.00;110031;1267;20007;-37
2023/03/04 09:18:40;;;;;;;;;2.00;1.00;;;;;20.23;55.22;100174.61;110043;1253;20819;-37
2023/03/04 09:21:08;;;;;;;;;1.00;1.00;;;;;20.23;55.23;100176.45;110025;1253;19636;-37
2023/03/04 09:23:35;;;;;;;;;3.50;3.00;;;;;20.21;55.27;100173.90;110046;1267;20185;-37
2023/03/04 09:26:03;;;;;;;;;1.00;1.00;;;;;20.20;55.31;100173.35;110050;1267;19278;-37
2023/03/04 09:28:30;;;;;;;;;2.00;2.00;;;;;20.20;55.40;100171.84;110039;1267;21752;-37
2023/03/04 09:30:58;;;;;;;;;2.00;2.00;;;;;20.20;55.04;100170.55;110033;1267;18641;-38
2023/03/04 09:33:25;;;;;;;;;1.50;1.50;;;;;20.24;54.90;100166.88;110058;1253;20953;-37
2023/03/04 09:35:52;;;;;;;;;3.00;3.00;;;;;20.25;54.99;100167.74;110013;1267;18298;-37
2023/03/04 09:38:23;;;;;;;;;2.00;2.00;;;;;20.24;54.77;100168.81;110075;1267;19975;-37
2023/03/04 09:40:51;;;;;;;;;2.00;2.00;;;;;20.22;54.60;100169.61;110050;1267;19389;-37
2023/03/04 09:43:18;;;;;;;;;3.00;3.00;;;;;20.21;54.54;100174.14;110036;1267;22680;-36
2023/03/04 09:45:46;;;;;;;;;2.00;2.00;;;;;20.20;54.84;100179.50;110082;1252;20146;-39
2023/03/04 09:48:13;;;;;;;;;1.00;1.00;;;;;20.18;54.73;100172.95;110030;1253;21942;-38
2023/03/04 09:50:41;;;;;;;;;3.00;3.00;;;;;20.18;54.62;100178.10;109933;1254;18681;-38
2023/03/04 09:53:08;;;;;;;;;3.00;3.00;;;;;20.18;54.67;100179.95;109879;1267;18590;-38
2023/03/04 09:55:36;;;;;;;;;3.00;3.00;;;;;20.17;54.76;100174.70;109982;1267;19361;-37
2023/03/04 09:58:03;;;;;;;;;1.00;1.00;;;;;20.17;54.75;100171.11;109956;1267;18560;-38
2023/03/04 10:00:31;;;;;;;;;1.00;1.00;;;;;20.17;54.72;100168.29;110003;1267;20125;-38
2023/03/04 10:02:58;;;;;;;;;1.00;1.00;;;;;20.16;54.58;100164.95;110012;1253;20796;-37
2023/03/04 10:05:26;;;;;;;;;1.00;1.00;;;;;20.15;54.72;100166.41;109971;1267;22413;-37
2023/03/04 10:07:53;;;;;;;;;3.00;3.00;;;;;20.15;54.55;100169.89;109997;1267;18655;-37
2023/03/04 10:10:21;;;;;;;;;1.00;1.00;;;;;20.16;54.44;100160.61;110001;1253;20767;-38
2023/03/04 10:12:48;;;;;;;;;1.00;1.00;;;;;20.15;54.60;100160.48;109981;1251;19659;-38
2023/03/04 10:15:16;;;;;;;;;1.00;1.00;;;;;20.16;54.40;100165.52;110000;1267;22258;-38
2023/03/04 10:17:43;;;;;;;;;4.00;3.00;;;;;20.16;54.28;100162.91;110038;1267;19352;-38
2023/03/04 10:20:10;;;;;;;;;1.00;1.00;;;;;20.16;54.21;100166.70;110001;1253;22848;-38
2023/03/04 10:22:38;;;;;;;;;1.00;1.00;;;;;20.16;54.29;100167.46;110013;1267;22872;-38
2023/03/04 10:25:05;;;;;;;;;3.00;3.00;;;;;20.16;54.19;100164.16;109972;1253;20788;-38
2023/03/04 10:27:33;;;;;;;;;3.00;1.00;;;;;20.15;54.09;100164.98;110022;1267;19839;-38
2023/03/04 10:30:00;;;;;;;;;1.00;1.00;;;;;20.16;54.10;100165.09;110009;1253;20192;-38
2023/03/04 10:32:28;;;;;;;;;3.00;3.00;;;;;20.17;54.10;100156.89;110007;1253;20831;-38
2023/03/04 10:34:55;;;;;;;;;1.00;1.00;;;;;20.16;53.90;100154.24;110051;1267;18577;-38
2023/03/04 10:37:22;;;;;;;;;3.00;3.00;;;;;20.15;54.13;100156.11;110048;1253;20026;-38
2023/03/04 10:39:50;;;;;;;;;1.00;1.00;;;;;20.16;54.16;100149.17;110046;1261;20458;-39
2023/03/04 10:42:19;;;;;;;;;1.00;1.00;;;;;20.16;54.12;100154.07;110018;1267;18667;-38
2023/03/04 10:44:46;;;;;;;;;3.00;3.00;;;;;20.16;53.98;100152.45;110021;1267;18723;-38
2023/03/04 10:47:14;;;;;;;;;3.00;1.00;;;;;20.16;53.78;100149.69;109999;1267;19476;-39
2023/03/04 10:49:41;;;;;;;;;4.00;3.00;;;;;20.15;53.71;100148.57;110001;1251;23939;-37
2023/03/04 10:52:09;;;;;;;;;3.00;3.00;;;;;20.15;53.73;100144.89;110019;1253;20319;-37
2023/03/04 10:54:36;;;;;;;;;1.00;1.00;;;;;20.16;53.94;100147.10;110026;1267;20755;-37
2023/03/04 10:57:03;;;;;;;;;3.00;3.00;;;;;20.16;53.79;100144.79;110021;1267;22667;-37
2023/03/04 10:59:31;;;;;;;;;2.00;2.00;;;;;20.16;53.77;100143.87;109989;1267;18650;-37
2023/03/04 11:01:58;;;;;;;;;1.00;1.00;;;;;20.16;53.73;100149.48;109991;1267;21982;-38
2023/03/04 11:04:26;;;;;;;;;1.00;1.00;;;;;20.17;53.64;100147.58;110006;1253;19671;-37
2023/03/04 11:06:53;;;;;;;;;3.00;3.00;;;;;20.16;53.76;100146.59;110015;1253;19949;-38
2023/03/04 11:09:20;;;;;;;;;1.00;1.00;;;;;20.17;53.74;100144.34;109995;1253;20765;-38
2023/03/04 11:11:48;;;;;;;;;2.00;2.00;;;;;20.17;53.80;100147.41;109986;1267;22928;-38
2023/03/04 11:14:15;;;;;;;;;1.00;1.00;;;;;20.17;53.54;100148.80;110013;1253;20274;-38
2023/03/04 11:16:43;;;;;;;;;3.00;3.00;;;;;20.17;53.65;100145.80;109988;1253;21138;-38